sensor_id;sensor_type;location;lat;lon;timestamp;pressure;altitude;pressure_sealevel;temperature;humidity
70555;BME280;58104;52.744;15.242;2023-04-27T00:00:21;101007.82;;;18.96;39.27
70555;BME280;58104;52.744;15.242;2023-04-27T00:02:47;101007.94;;;18.95;39.32
70555;BME280;58104;52.744;15.242;2023-04-27T00:05:12;101007.27;;;18.99;39.24
70555;BME280;58104;52.744;15.242;2023-04-27T00:07:37;101007.06;;;18.92;39.66
70555;BME280;58104;52.744;15.242;2023-04-27T00:10:03;100999.37;;;18.86;39.80
70555;BME280;58104;52.744;15.242;2023-04-27T00:12:28;101000.18;;;18.87;40.03
70555;BME280;58104;52.744;15.242;2023-04-27T00:14:53;100998.23;;;19.00;39.87
70555;BME280;58104;52.744;15.242;2023-04-27T00:17:19;101001.01;;;18.96;39.74
70555;BME280;58104;52.744;15.242;2023-04-27T00:19:44;100994.21;;;18.99;39.87
70555;BME280;58104;52.744;15.242;2023-04-27T00:22:10;100991.71;;;19.01;39.81
70555;BME280;58104;52.744;15.242;2023-04-27T00:24:35;100989.98;;;18.99;40.03
70555;BME280;58104;52.744;15.242;2023-04-27T00:27:01;100991.53;;;18.96;40.22
70555;BME280;58104;52.744;15.242;2023-04-27T00:29:26;100989.66;;;18.87;40.37
70555;BME280;58104;52.744;15.242;2023-04-27T00:31:52;100988.42;;;18.95;40.53
70555;BME280;58104;52.744;15.242;2023-04-27T00:34:17;100991.03;;;19.04;40.57
70555;BME280;58104;52.744;15.242;2023-04-27T00:36:42;100991.70;;;19.03;41.00
70555;BME280;58104;52.744;15.242;2023-04-27T00:39:08;100995.02;;;19.02;40.97
70555;BME280;58104;52.744;15.242;2023-04-27T00:41:38;100995.78;;;19.09;41.04
70555;BME280;58104;52.744;15.242;2023-04-27T00:43:59;100997.95;;;19.06;40.98
70555;BME280;58104;52.744;15.242;2023-04-27T00:46:24;100996.69;;;18.99;41.04
70555;BME280;58104;52.744;15.242;2023-04-27T00:48:50;100998.88;;;19.01;41.33
70555;BME280;58104;52.744;15.242;2023-04-27T00:51:15;100998.68;;;19.02;41.21
70555;BME280;58104;52.744;15.242;2023-04-27T00:53:41;101003.83;;;19.06;41.18
70555;BME280;58104;52.744;15.242;2023-04-27T00:56:06;101005.85;;;19.03;41.17
70555;BME280;58104;52.744;15.242;2023-04-27T00:58:32;101004.23;;;19.03;41.19
70555;BME280;58104;52.744;15.242;2023-04-27T01:00:57;101004.98;;;19.04;41.47
70555;BME280;58104;52.744;15.242;2023-04-27T01:03:22;101007.55;;;19.02;41.47
70555;BME280;58104;52.744;15.242;2023-04-27T01:05:48;101009.54;;;18.98;41.54
70555;BME280;58104;52.744;15.242;2023-04-27T01:08:13;101007.40;;;18.99;41.61
70555;BME280;58104;52.744;15.242;2023-04-27T01:10:39;101008.77;;;18.97;41.79
70555;BME280;58104;52.744;15.242;2023-04-27T01:13:04;101009.00;;;18.97;41.70
70555;BME280;58104;52.744;15.242;2023-04-27T01:15:30;101010.10;;;19.03;41.61
70555;BME280;58104;52.744;15.242;2023-04-27T01:17:57;101008.67;;;19.02;41.49
70555;BME280;58104;52.744;15.242;2023-04-27T01:20:21;101008.73;;;19.03;41.52
70555;BME280;58104;52.744;15.242;2023-04-27T01:22:46;101009.81;;;18.93;41.62
70555;BME280;58104;52.744;15.242;2023-04-27T01:25:11;101005.88;;;18.90;41.52
70555;BME280;58104;52.744;15.242;2023-04-27T01:27:37;101007.63;;;18.96;41.96
70555;BME280;58104;52.744;15.242;2023-04-27T01:30:02;101013.14;;;18.87;42.38
70555;BME280;58104;52.744;15.242;2023-04-27T01:32:27;101013.18;;;18.85;42.37
70555;BME280;58104;52.744;15.242;2023-04-27T01:34:53;101011.47;;;18.72;42.51
70555;BME280;58104;52.744;15.242;2023-04-27T01:37:18;101012.92;;;18.85;42.25
70555;BME280;58104;52.744;15.242;2023-04-27T01:39:44;101012.08;;;18.92;42.32
70555;BME280;58104;52.744;15.242;2023-04-27T01:42:09;101015.77;;;18.89;42.24
70555;BME280;58104;52.744;15.242;2023-04-27T01:44:35;101011.67;;;18.81;42.34
70555;BME280;58104;52.744;15.242;2023-04-27T01:47:00;101013.27;;;18.91;42.23
70555;BME280;58104;52.744;15.242;2023-04-27T01:49:26;101020.30;;;18.83;42.22
70555;BME280;58104;52.744;15.242;2023-04-27T01:51:51;101020.01;;;18.87;42.29
70555;BME280;58104;52.744;15.242;2023-04-27T01:54:16;101020.18;;;18.85;42.24
70555;BME280;58104;52.744;15.242;2023-04-27T01:56:42;101022.19;;;18.93;42.31
70555;BME280;58104;52.744;15.242;2023-04-27T01:59:07;101023.80;;;18.90;42.44
70555;BME280;58104;52.744;15.242;2023-04-27T02:01:33;101026.27;;;18.95;42.37
70555;BME280;58104;52.744;15.242;2023-04-27T02:03:58;101024.07;;;18.97;42.42
70555;BME280;58104;52.744;15.242;2023-04-27T02:06:24;101026.40;;;18.89;42.56
70555;BME280;58104;52.744;15.242;2023-04-27T02:08:49;101028.13;;;18.83;43.52
70555;BME280;58104;52.744;15.242;2023-04-27T02:11:14;101028.36;;;18.87;43.44
70555;BME280;58104;52.744;15.242;2023-04-27T02:13:40;101026.38;;;18.97;43.46
70555;BME280;58104;52.744;15.242;2023-04-27T02:16:06;101029.86;;;18.85;43.60
70555;BME280;58104;52.744;15.242;2023-04-27T02:18:31;101032.16;;;18.85;43.62
70555;BME280;58104;52.744;15.242;2023-04-27T02:20:56;101033.63;;;18.99;43.60
70555;BME280;58104;52.744;15.242;2023-04-27T02:23:22;101034.66;;;18.92;43.77
70555;BME280;58104;52.744;15.242;2023-04-27T02:25:47;101037.00;;;18.85;43.93
70555;BME280;58104;52.744;15.242;2023-04-27T02:28:12;101043.67;;;18.87;43.98
70555;BME280;58104;52.744;15.242;2023-04-27T02:30:38;101042.27;;;18.87;44.01
70555;BME280;58104;52.744;15.242;2023-04-27T02:33:03;101044.66;;;18.90;43.87
70555;BME280;58104;52.744;15.242;2023-04-27T02:35:29;101046.11;;;18.97;43.86
70555;BME280;58104;52.744;15.242;2023-04-27T02:37:54;101047.94;;;18.84;43.81
70555;BME280;58104;52.744;15.242;2023-04-27T02:40:19;101050.04;;;18.95;43.69
70555;BME280;58104;52.744;15.242;2023-04-27T02:42:45;101050.79;;;18.93;43.85
70555;BME280;58104;52.744;15.242;2023-04-27T02:45:10;101048.37;;;18.94;43.83
70555;BME280;58104;52.744;15.242;2023-04-27T02:47:36;101051.01;;;19.02;43.80
70555;BME280;58104;52.744;15.242;2023-04-27T02:50:01;101053.30;;;18.92;43.84
70555;BME280;58104;52.744;15.242;2023-04-27T02:52:27;101055.33;;;18.97;43.85
70555;BME280;58104;52.744;15.242;2023-04-27T02:54:52;101053.19;;;18.98;43.70
70555;BME280;58104;52.744;15.242;2023-04-27T02:57:17;101055.49;;;19.07;43.63
70555;BME280;58104;52.744;15.242;2023-04-27T02:59:43;101055.21;;;19.02;43.58
70555;BME280;58104;52.744;15.242;2023-04-27T03:02:08;101058.38;;;18.95;43.56
70555;BME280;58104;52.744;15.242;2023-04-27T03:04:34;101062.88;;;19.00;43.60
70555;BME280;58104;52.744;15.242;2023-04-27T03:06:59;101064.81;;;19.11;43.50
70555;BME280;58104;52.744;15.242;2023-04-27T03:09:24;101067.08;;;19.04;43.66
70555;BME280;58104;52.744;15.242;2023-04-27T03:11:50;101066.40;;;18.96;43.96
70555;BME280;58104;52.744;15.242;2023-04-27T03:14:15;101069.38;;;18.88;44.05
70555;BME280;58104;52.744;15.242;2023-04-27T03:16:41;101070.66;;;18.89;44.06
70555;BME280;58104;52.744;15.242;2023-04-27T03:19:06;101066.73;;;18.90;44.09
70555;BME280;58104;52.744;15.242;2023-04-27T03:21:32;101067.39;;;18.96;44.07
70555;BME280;58104;52.744;15.242;2023-04-27T03:23:57;101073.75;;;19.00;45.61
70555;BME280;58104;52.744;15.242;2023-04-27T03:26:23;101075.83;;;19.08;45.66
70555;BME280;58104;52.744;15.242;2023-04-27T03:28:48;101075.32;;;19.25;45.43
70555;BME280;58104;52.744;15.242;2023-04-27T03:31:14;101076.03;;;18.98;43.27
70555;BME280;58104;52.744;15.242;2023-04-27T03:33:40;101076.70;;;18.68;41.42
70555;BME280;58104;52.744;15.242;2023-04-27T03:36:06;101080.55;;;18.53;39.10
70555;BME280;58104;52.744;15.242;2023-04-27T03:38:31;101084.45;;;18.39;38.34
70555;BME280;58104;52.744;15.242;2023-04-27T03:40:55;101091.10;;;18.37;38.41
70555;BME280;58104;52.744;15.242;2023-04-27T03:43:21;101091.55;;;18.30;37.43
70555;BME280;58104;52.744;15.242;2023-04-27T03:45:47;101092.93;;;18.19;37.26
70555;BME280;58104;52.744;15.242;2023-04-27T03:48:12;101094.71;;;18.27;37.14
70555;BME280;58104;52.744;15.242;2023-04-27T03:50:37;101094.76;;;18.14;37.23
70555;BME280;58104;52.744;15.242;2023-04-27T03:53:02;101095.99;;;17.87;37.53
70555;BME280;58104;52.744;15.242;2023-04-27T03:55:28;101095.96;;;18.00;36.97
70555;BME280;58104;52.744;15.242;2023-04-27T03:57:53;101099.66;;;17.92;37.25
70555;BME280;58104;52.744;15.242;2023-04-27T04:00:19;101100.03;;;17.98;37.43
70555;BME280;58104;52.744;15.242;2023-04-27T04:02:44;101103.73;;;18.03;36.92
70555;BME280;58104;52.744;15.242;2023-04-27T04:05:10;101104.96;;;18.05;37.95
70555;BME280;58104;52.744;15.242;2023-04-27T04:07:35;101104.11;;;17.84;37.98
70555;BME280;58104;52.744;15.242;2023-04-27T04:10:01;101106.63;;;17.99;37.47
70555;BME280;58104;52.744;15.242;2023-04-27T04:12:26;101112.65;;;17.72;37.49
70555;BME280;58104;52.744;15.242;2023-04-27T04:14:52;101113.58;;;17.62;37.13
70555;BME280;58104;52.744;15.242;2023-04-27T04:17:17;101121.39;;;17.71;38.66
70555;BME280;58104;52.744;15.242;2023-04-27T04:19:42;101121.82;;;17.58;37.98
70555;BME280;58104;52.744;15.242;2023-04-27T04:22:07;101124.66;;;17.54;38.18
70555;BME280;58104;52.744;15.242;2023-04-27T04:24:33;101126.41;;;17.49;37.82
70555;BME280;58104;52.744;15.242;2023-04-27T04:26:58;101129.00;;;17.02;36.96
70555;BME280;58104;52.744;15.242;2023-04-27T04:29:24;101130.36;;;17.10;37.27
70555;BME280;58104;52.744;15.242;2023-04-27T04:31:49;101129.89;;;16.97;37.99
70555;BME280;58104;52.744;15.242;2023-04-27T04:34:14;101134.08;;;17.13;37.50
70555;BME280;58104;52.744;15.242;2023-04-27T04:36:39;101135.77;;;17.17;37.62
70555;BME280;58104;52.744;15.242;2023-04-27T04:39:05;101136.39;;;17.33;36.73
70555;BME280;58104;52.744;15.242;2023-04-27T04:41:30;101137.63;;;17.31;36.22
70555;BME280;58104;52.744;15.242;2023-04-27T04:43:55;101138.24;;;17.29;36.10
70555;BME280;58104;52.744;15.242;2023-04-27T04:46:21;101139.12;;;17.40;35.52
70555;BME280;58104;52.744;15.242;2023-04-27T04:48:46;101137.47;;;17.24;35.28
70555;BME280;58104;52.744;15.242;2023-04-27T04:51:12;101139.39;;;17.28;34.95
70555;BME280;58104;52.744;15.242;2023-04-27T04:53:37;101142.68;;;17.22;34.57
70555;BME280;58104;52.744;15.242;2023-04-27T04:56:08;101147.53;;;17.21;34.40
70555;BME280;58104;52.744;15.242;2023-04-27T04:58:28;101153.63;;;17.31;34.36
70555;BME280;58104;52.744;15.242;2023-04-27T05:00:53;101152.37;;;17.35;34.19
70555;BME280;58104;52.744;15.242;2023-04-27T05:03:19;101152.11;;;17.38;34.11
70555;BME280;58104;52.744;15.242;2023-04-27T05:05:44;101156.30;;;17.44;34.02
70555;BME280;58104;52.744;15.242;2023-04-27T05:08:09;101158.75;;;17.28;33.90
70555;BME280;58104;52.744;15.242;2023-04-27T05:10:35;101155.92;;;17.42;33.82
70555;BME280;58104;52.744;15.242;2023-04-27T05:13:00;101156.34;;;17.27;33.89
70555;BME280;58104;52.744;15.242;2023-04-27T05:15:26;101157.21;;;17.35;33.39
70555;BME280;58104;52.744;15.242;2023-04-27T05:17:51;101158.41;;;17.36;32.99
70555;BME280;58104;52.744;15.242;2023-04-27T05:20:17;101164.76;;;17.20;33.19
70555;BME280;58104;52.744;15.242;2023-04-27T05:22:42;101166.94;;;17.31;33.18
70555;BME280;58104;52.744;15.242;2023-04-27T05:25:08;101167.85;;;17.15;33.22
70555;BME280;58104;52.744;15.242;2023-04-27T05:27:33;101170.41;;;17.28;32.88
70555;BME280;58104;52.744;15.242;2023-04-27T05:29:58;101172.96;;;17.39;33.17
70555;BME280;58104;52.744;15.242;2023-04-27T05:32:24;101169.74;;;17.57;32.50
70555;BME280;58104;52.744;15.242;2023-04-27T05:34:49;101177.37;;;17.13;32.66
70555;BME280;58104;52.744;15.242;2023-04-27T05:37:15;101176.02;;;17.23;32.88
70555;BME280;58104;52.744;15.242;2023-04-27T05:39:40;101177.55;;;16.92;33.07
70555;BME280;58104;52.744;15.242;2023-04-27T05:42:05;101180.87;;;16.99;33.03
70555;BME280;58104;52.744;15.242;2023-04-27T05:44:31;101178.51;;;17.00;32.79
70555;BME280;58104;52.744;15.242;2023-04-27T05:46:56;101179.30;;;16.87;33.18
70555;BME280;58104;52.744;15.242;2023-04-27T05:49:22;101175.27;;;16.98;32.64
70555;BME280;58104;52.744;15.242;2023-04-27T05:51:47;101177.37;;;16.99;32.73
70555;BME280;58104;52.744;15.242;2023-04-27T05:54:12;101176.38;;;17.07;32.66
70555;BME280;58104;52.744;15.242;2023-04-27T05:56:38;101172.61;;;16.94;32.62
70555;BME280;58104;52.744;15.242;2023-04-27T05:59:03;101173.61;;;16.90;32.64
70555;BME280;58104;52.744;15.242;2023-04-27T06:01:29;101170.11;;;16.89;32.47
70555;BME280;58104;52.744;15.242;2023-04-27T06:03:54;101169.60;;;16.95;32.80
70555;BME280;58104;52.744;15.242;2023-04-27T06:06:19;101172.46;;;16.94;32.52
70555;BME280;58104;52.744;15.242;2023-04-27T06:08:45;101170.74;;;16.86;32.60
70555;BME280;58104;52.744;15.242;2023-04-27T06:11:10;101169.18;;;16.86;32.63
70555;BME280;58104;52.744;15.242;2023-04-27T06:13:36;101166.62;;;16.93;32.43
70555;BME280;58104;52.744;15.242;2023-04-27T06:16:01;101171.71;;;17.05;32.15
70555;BME280;58104;52.744;15.242;2023-04-27T06:18:27;101175.17;;;16.85;32.30
70555;BME280;58104;52.744;15.242;2023-04-27T06:20:52;101170.33;;;16.81;32.20
70555;BME280;58104;52.744;15.242;2023-04-27T06:23:17;101172.99;;;16.89;32.35
70555;BME280;58104;52.744;15.242;2023-04-27T06:25:43;101175.19;;;16.78;32.06
70555;BME280;58104;52.744;15.242;2023-04-27T06:28:08;101173.59;;;16.85;32.15
70555;BME280;58104;52.744;15.242;2023-04-27T06:30:34;101173.20;;;16.94;32.00
70555;BME280;58104;52.744;15.242;2023-04-27T06:32:59;101171.27;;;16.91;31.91
70555;BME280;58104;52.744;15.242;2023-04-27T06:35:24;101175.51;;;17.02;31.87
70555;BME280;58104;52.744;15.242;2023-04-27T06:37:50;101171.30;;;16.88;32.03
70555;BME280;58104;52.744;15.242;2023-04-27T06:40:15;101172.64;;;16.81;31.95
70555;BME280;58104;52.744;15.242;2023-04-27T06:42:41;101172.89;;;16.80;31.87
70555;BME280;58104;52.744;15.242;2023-04-27T06:45:07;101175.47;;;16.86;31.75
70555;BME280;58104;52.744;15.242;2023-04-27T06:47:32;101176.64;;;16.86;31.77
70555;BME280;58104;52.744;15.242;2023-04-27T06:49:57;101177.43;;;16.87;31.64
70555;BME280;58104;52.744;15.242;2023-04-27T06:52:23;101179.91;;;16.95;31.42
70555;BME280;58104;52.744;15.242;2023-04-27T06:54:48;101181.15;;;16.88;31.47
70555;BME280;58104;52.744;15.242;2023-04-27T06:57:13;101183.70;;;16.89;31.28
70555;BME280;58104;52.744;15.242;2023-04-27T06:59:39;101182.00;;;17.03;31.15
70555;BME280;58104;52.744;15.242;2023-04-27T07:02:05;101181.62;;;17.00;31.09
70555;BME280;58104;52.744;15.242;2023-04-27T07:04:30;101181.11;;;17.00;31.05
70555;BME280;58104;52.744;15.242;2023-04-27T07:06:55;101184.33;;;17.22;30.80
70555;BME280;58104;52.744;15.242;2023-04-27T07:09:21;101185.66;;;17.29;30.77
70555;BME280;58104;52.744;15.242;2023-04-27T07:11:46;101182.30;;;17.24;30.77
70555;BME280;58104;52.744;15.242;2023-04-27T07:14:12;101188.48;;;17.26;30.87
70555;BME280;58104;52.744;15.242;2023-04-27T07:16:37;101184.20;;;17.37;30.61
70555;BME280;58104;52.744;15.242;2023-04-27T07:19:03;101185.81;;;17.49;30.39
70555;BME280;58104;52.744;15.242;2023-04-27T07:21:28;101184.01;;;17.61;30.30
70555;BME280;58104;52.744;15.242;2023-04-27T07:23:53;101186.10;;;17.68;30.15
70555;BME280;58104;52.744;15.242;2023-04-27T07:26:19;101190.85;;;17.80;30.17
70555;BME280;58104;52.744;15.242;2023-04-27T07:28:44;101185.25;;;17.72;29.93
70555;BME280;58104;52.744;15.242;2023-04-27T07:31:10;101189.56;;;17.71;30.08
70555;BME280;58104;52.744;15.242;2023-04-27T07:33:36;101191.92;;;17.58;30.15
70555;BME280;58104;52.744;15.242;2023-04-27T07:36:01;101194.52;;;17.53;30.30
70555;BME280;58104;52.744;15.242;2023-04-27T07:38:26;101195.50;;;17.53;30.20
70555;BME280;58104;52.744;15.242;2023-04-27T07:40:51;101195.80;;;17.55;30.05
70555;BME280;58104;52.744;15.242;2023-04-27T07:43:17;101200.11;;;17.65;30.03
70555;BME280;58104;52.744;15.242;2023-04-27T07:45:42;101198.30;;;17.64;29.76
70555;BME280;58104;52.744;15.242;2023-04-27T07:48:08;101199.35;;;17.91;29.34
70555;BME280;58104;52.744;15.242;2023-04-27T07:50:33;101200.33;;;18.12;29.11
70555;BME280;58104;52.744;15.242;2023-04-27T07:52:59;101201.43;;;18.13;28.80
70555;BME280;58104;52.744;15.242;2023-04-27T07:55:25;101200.09;;;18.16;28.63
70555;BME280;58104;52.744;15.242;2023-04-27T07:57:50;101198.70;;;18.16;28.76
70555;BME280;58104;52.744;15.242;2023-04-27T08:00:16;101203.92;;;18.21;28.70
70555;BME280;58104;52.744;15.242;2023-04-27T08:02:40;101195.45;;;18.23;28.47
70555;BME280;58104;52.744;15.242;2023-04-27T08:05:07;101198.64;;;18.70;27.93
70555;BME280;58104;52.744;15.242;2023-04-27T08:07:32;101199.72;;;18.75;27.84
70555;BME280;58104;52.744;15.242;2023-04-27T08:09:57;101203.41;;;18.89;27.52
70555;BME280;58104;52.744;15.242;2023-04-27T08:12:22;101204.27;;;18.90;27.21
70555;BME280;58104;52.744;15.242;2023-04-27T08:14:48;101205.30;;;18.91;27.09
70555;BME280;58104;52.744;15.242;2023-04-27T08:17:13;101207.78;;;19.10;26.77
70555;BME280;58104;52.744;15.242;2023-04-27T08:19:39;101209.24;;;19.36;26.77
70555;BME280;58104;52.744;15.242;2023-04-27T08:22:04;101205.40;;;19.60;25.91
70555;BME280;58104;52.744;15.242;2023-04-27T08:24:29;101210.16;;;19.73;26.05
70555;BME280;58104;52.744;15.242;2023-04-27T08:26:55;101211.23;;;19.92;26.00
70555;BME280;58104;52.744;15.242;2023-04-27T08:29:20;101217.39;;;19.81;25.81
70555;BME280;58104;52.744;15.242;2023-04-27T08:31:45;101209.72;;;19.91;26.10
70555;BME280;58104;52.744;15.242;2023-04-27T08:34:11;101214.62;;;19.94;26.21
70555;BME280;58104;52.744;15.242;2023-04-27T08:36:36;101204.39;;;19.94;26.11
70555;BME280;58104;52.744;15.242;2023-04-27T08:39:02;101214.75;;;19.57;26.34
70555;BME280;58104;52.744;15.242;2023-04-27T08:41:27;101210.79;;;19.78;26.15
70555;BME280;58104;52.744;15.242;2023-04-27T08:43:53;101221.45;;;19.47;26.50
70555;BME280;58104;52.744;15.242;2023-04-27T08:46:18;101214.69;;;19.57;26.32
70555;BME280;58104;52.744;15.242;2023-04-27T08:48:43;101213.15;;;19.52;26.44
70555;BME280;58104;52.744;15.242;2023-04-27T08:51:10;101209.15;;;19.67;26.09
70555;BME280;58104;52.744;15.242;2023-04-27T08:53:34;101211.32;;;19.84;25.91
70555;BME280;58104;52.744;15.242;2023-04-27T08:56:00;101210.99;;;19.89;26.08
70555;BME280;58104;52.744;15.242;2023-04-27T08:58:34;101209.72;;;19.53;26.22
70555;BME280;58104;52.744;15.242;2023-04-27T09:00:50;101218.41;;;19.31;26.30
70555;BME280;58104;52.744;15.242;2023-04-27T09:03:23;101208.25;;;19.47;25.71
70555;BME280;58104;52.744;15.242;2023-04-27T09:05:45;101213.94;;;19.72;25.40
70555;BME280;58104;52.744;15.242;2023-04-27T09:08:07;101213.74;;;19.53;25.69
70555;BME280;58104;52.744;15.242;2023-04-27T09:12:59;101208.16;;;19.31;25.54
70555;BME280;58104;52.744;15.242;2023-04-27T09:15:23;101201.86;;;19.32;25.58
70555;BME280;58104;52.744;15.242;2023-04-27T09:17:54;101201.10;;;19.19;25.68
70555;BME280;58104;52.744;15.242;2023-04-27T09:20:14;101203.88;;;19.05;25.93
70555;BME280;58104;52.744;15.242;2023-04-27T09:22:43;101207.17;;;19.00;26.05
70555;BME280;58104;52.744;15.242;2023-04-27T09:25:05;101211.78;;;18.82;26.47
70555;BME280;58104;52.744;15.242;2023-04-27T09:27:30;101209.54;;;18.74;26.63
70555;BME280;58104;52.744;15.242;2023-04-27T09:29:56;101201.01;;;18.70;26.68
70555;BME280;58104;52.744;15.242;2023-04-27T09:32:21;101205.34;;;18.80;26.19
70555;BME280;58104;52.744;15.242;2023-04-27T09:34:47;101202.37;;;18.88;26.47
70555;BME280;58104;52.744;15.242;2023-04-27T09:37:13;101208.43;;;18.78;26.31
70555;BME280;58104;52.744;15.242;2023-04-27T09:39:38;101200.70;;;18.59;26.76
70555;BME280;58104;52.744;15.242;2023-04-27T09:42:03;101203.23;;;18.62;26.59
70555;BME280;58104;52.744;15.242;2023-04-27T09:44:29;101201.34;;;18.65;26.42
70555;BME280;58104;52.744;15.242;2023-04-27T09:46:55;101201.73;;;18.73;26.47
70555;BME280;58104;52.744;15.242;2023-04-27T09:49:20;101204.37;;;18.71;26.05
70555;BME280;58104;52.744;15.242;2023-04-27T09:51:45;101202.12;;;18.58;26.14
70555;BME280;58104;52.744;15.242;2023-04-27T09:54:13;101204.57;;;18.43;26.20
70555;BME280;58104;52.744;15.242;2023-04-27T09:56:49;101207.47;;;18.52;26.33
70555;BME280;58104;52.744;15.242;2023-04-27T09:59:15;101205.10;;;18.64;26.06
70555;BME280;58104;52.744;15.242;2023-04-27T10:01:32;101197.81;;;18.60;26.23
70555;BME280;58104;52.744;15.242;2023-04-27T10:04:04;101211.98;;;18.33;26.50
70555;BME280;58104;52.744;15.242;2023-04-27T10:08:43;101203.04;;;18.65;26.06
70555;BME280;58104;52.744;15.242;2023-04-27T10:11:13;101198.30;;;18.81;25.93
70555;BME280;58104;52.744;15.242;2023-04-27T10:13:33;101204.11;;;18.64;25.87
70555;BME280;58104;52.744;15.242;2023-04-27T10:18:26;101207.18;;;18.63;25.55
70555;BME280;58104;52.744;15.242;2023-04-27T10:20:50;101204.54;;;18.58;25.76
70555;BME280;58104;52.744;15.242;2023-04-27T10:23:22;101210.87;;;18.76;25.93
70555;BME280;58104;52.744;15.242;2023-04-27T10:25:41;101200.72;;;18.62;25.91
70555;BME280;58104;52.744;15.242;2023-04-27T10:28:06;101206.21;;;18.70;25.82
70555;BME280;58104;52.744;15.242;2023-04-27T10:30:33;101196.24;;;18.83;25.59
70555;BME280;58104;52.744;15.242;2023-04-27T10:32:59;101199.65;;;18.76;25.82
70555;BME280;58104;52.744;15.242;2023-04-27T10:35:31;101201.24;;;18.71;26.14
70555;BME280;58104;52.744;15.242;2023-04-27T10:37:48;101201.34;;;18.54;26.04
70555;BME280;58104;52.744;15.242;2023-04-27T10:40:14;101207.13;;;18.42;26.55
70555;BME280;58104;52.744;15.242;2023-04-27T10:42:39;101202.03;;;18.24;26.51
70555;BME280;58104;52.744;15.242;2023-04-27T10:45:05;101206.52;;;18.37;26.61
70555;BME280;58104;52.744;15.242;2023-04-27T10:47:35;101200.04;;;18.48;26.49
70555;BME280;58104;52.744;15.242;2023-04-27T10:49:55;101197.54;;;18.67;26.39
70555;BME280;58104;52.744;15.242;2023-04-27T10:52:21;101197.58;;;19.54;25.49
70555;BME280;58104;52.744;15.242;2023-04-27T10:54:46;101199.30;;;19.65;25.35
70555;BME280;58104;52.744;15.242;2023-04-27T10:57:12;101204.41;;;19.37;25.54
70555;BME280;58104;52.744;15.242;2023-04-27T11:02:02;101208.72;;;20.03;24.58
70555;BME280;58104;52.744;15.242;2023-04-27T11:04:34;101211.60;;;19.70;24.88
70555;BME280;58104;52.744;15.242;2023-04-27T11:06:53;101208.75;;;19.56;24.96
70555;BME280;58104;52.744;15.242;2023-04-27T11:09:24;101207.39;;;19.66;24.89
70555;BME280;58104;52.744;15.242;2023-04-27T11:11:44;101204.24;;;19.50;25.19
70555;BME280;58104;52.744;15.242;2023-04-27T11:14:14;101205.47;;;19.22;25.48
70555;BME280;58104;52.744;15.242;2023-04-27T11:16:35;101209.43;;;19.29;25.33
70555;BME280;58104;52.744;15.242;2023-04-27T11:19:04;101205.64;;;19.58;25.11
70555;BME280;58104;52.744;15.242;2023-04-27T11:21:27;101215.44;;;19.95;24.55
70555;BME280;58104;52.744;15.242;2023-04-27T11:23:52;101208.03;;;20.03;23.98
70555;BME280;58104;52.744;15.242;2023-04-27T11:26:19;101210.53;;;20.18;23.94
70555;BME280;58104;52.744;15.242;2023-04-27T11:28:43;101211.54;;;20.28;23.92
70555;BME280;58104;52.744;15.242;2023-04-27T11:31:08;101223.56;;;20.20;23.91
70555;BME280;58104;52.744;15.242;2023-04-27T11:33:33;101214.06;;;19.74;24.56
70555;BME280;58104;52.744;15.242;2023-04-27T11:35:59;101210.89;;;19.58;24.60
70555;BME280;58104;52.744;15.242;2023-04-27T11:38:24;101210.68;;;18.91;25.36
70555;BME280;58104;52.744;15.242;2023-04-27T11:40:58;101213.07;;;19.38;25.02
70555;BME280;58104;52.744;15.242;2023-04-27T11:43:15;101211.08;;;19.26;25.12
70555;BME280;58104;52.744;15.242;2023-04-27T11:45:42;101212.80;;;19.66;24.75
70555;BME280;58104;52.744;15.242;2023-04-27T11:48:06;101220.15;;;20.00;24.12
70555;BME280;58104;52.744;15.242;2023-04-27T11:50:31;101216.97;;;20.56;23.78
70555;BME280;58104;52.744;15.242;2023-04-27T11:53:00;101202.39;;;20.76;23.36
70555;BME280;58104;52.744;15.242;2023-04-27T11:55:22;101220.86;;;19.90;24.26
70555;BME280;58104;52.744;15.242;2023-04-27T11:57:48;101216.01;;;19.56;24.81
70555;BME280;58104;52.744;15.242;2023-04-27T12:00:13;101209.88;;;19.48;24.96
70555;BME280;58104;52.744;15.242;2023-04-27T12:02:39;101206.29;;;19.93;24.12
70555;BME280;58104;52.744;15.242;2023-04-27T12:05:04;101206.13;;;19.74;24.45
70555;BME280;58104;52.744;15.242;2023-04-27T12:07:29;101216.53;;;19.65;24.67
70555;BME280;58104;52.744;15.242;2023-04-27T12:09:55;101204.56;;;19.56;24.75
70555;BME280;58104;52.744;15.242;2023-04-27T12:12:20;101213.87;;;19.67;24.65
70555;BME280;58104;52.744;15.242;2023-04-27T12:14:45;101215.52;;;19.90;24.26
70555;BME280;58104;52.744;15.242;2023-04-27T12:17:11;101217.66;;;20.04;23.95
70555;BME280;58104;52.744;15.242;2023-04-27T12:19:36;101217.45;;;19.80;24.47
70555;BME280;58104;52.744;15.242;2023-04-27T12:22:02;101214.74;;;19.72;24.64
70555;BME280;58104;52.744;15.242;2023-04-27T12:24:27;101214.35;;;20.08;24.16
70555;BME280;58104;52.744;15.242;2023-04-27T12:26:53;101221.58;;;19.99;24.35
70555;BME280;58104;52.744;15.242;2023-04-27T12:29:18;101223.17;;;19.77;24.14
70555;BME280;58104;52.744;15.242;2023-04-27T12:31:44;101221.96;;;19.51;24.50
70555;BME280;58104;52.744;15.242;2023-04-27T12:34:09;101220.71;;;19.82;24.05
70555;BME280;58104;52.744;15.242;2023-04-27T12:36:34;101222.71;;;19.77;24.04
70555;BME280;58104;52.744;15.242;2023-04-27T12:41:25;101228.68;;;19.23;24.74